Oxford, NC

3:13 PM EST on November 18, 2019 (GMT -0500)
Henderson-Oxford

Weather History for KHNZ - June, 2019

Change the Weather History Date:

Tuesday, June 11, 2019

  Actual Average (KTDF) Record (KTDF)
Temperature  
Mean Temperature 67 °F -  
Max Temperature 77 °F 83 °F 98 °F (1963)
Min Temperature 56 °F 58 °F 41 °F (1972)
Cooling Degree Days 2    
Growing Degree Days 17 (Base 50)    
Moisture  
Dew Point 56 °F    
Average Humidity 66    
Maximum Humidity 96    
Minimum Humidity 34    
Precipitation  
Precipitation 0.00 in - - ()
Sea Level Pressure  
Sea Level Pressure 30.04 in    
Wind  
Wind Speed 5 mph (North)    
Max Wind Speed 12 mph    
Max Gust Speed 17 mph    
Visibility 10 miles    
Events      
Averages and records for this station are not official NWS values.
T = Trace of Precipitation, MM = Missing Value Source: NWS Daily Summary

Daily Weather History Graph

Daily Weather History Graph

Search for Another Location

Airport or City:

Astronomy

Jun. 11, 2019 Rise Set
Actual Time 5:55 AM EDT 8:31 PM EDT
Civil Twilight 5:25 AM EDT 9:02 PM EDT
Nautical Twilight 4:47 AM EDT 9:39 PM EDT
Astronomical Twilight 4:05 AM EDT 10:21 PM EDT
Moon 2:40 PM EDT (6/11) 2:26 AM EDT (6/11)
Length of Visible Light 15h 36m
Length of Day
14h 36m
Waxing Gibbous, 66% of the Moon is Illuminated
Jun 11
Waxing Gibbous
Jun 17
Full
Jun 25
Last Quarter
Jul 2
New
Jul 9
First Quarter

Hourly Weather History & Observations

Time (EDT) Temp. Dew Point Humidity Pressure Visibility Wind Dir Wind Speed Gust Speed Precip Events Conditions
2:00 AM 68.2 °F 67.1 °F 96% 29.91 in 10.0 mi WSW 3.5 mph - N/A   Unknown
2:20 AM 68.2 °F 67.1 °F 96% 29.92 in 10.0 mi WSW 4.6 mph - N/A   Mostly Cloudy
2:40 AM 68.2 °F 67.1 °F 96% 29.92 in 10.0 mi Calm Calm - N/A   Mostly Cloudy
3:00 AM 68.0 °F 66.6 °F 95% 29.92 in 10.0 mi Calm Calm - N/A   Scattered Clouds
3:20 AM 68.0 °F 65.7 °F 92% 29.92 in 10.0 mi WNW 4.6 mph - N/A   Scattered Clouds
3:40 AM 67.5 °F 65.3 °F 93% 29.92 in 10.0 mi NW 5.8 mph - N/A   Scattered Clouds
4:00 AM 67.1 °F 64.8 °F 92% 29.93 in 10.0 mi NW 6.9 mph - N/A   Scattered Clouds
4:20 AM 66.7 °F 64.6 °F 93% 29.93 in 10.0 mi NW 5.8 mph - N/A   Clear
4:40 AM 66.6 °F 64.2 °F 92% 29.94 in 10.0 mi NW 4.6 mph - N/A   Scattered Clouds
5:00 AM 66.4 °F 64.4 °F 93% 29.94 in 10.0 mi NNW 3.5 mph - N/A   Mostly Cloudy
5:20 AM 66.4 °F 64.6 °F 94% 29.96 in 10.0 mi NW 4.6 mph - N/A   Overcast
5:40 AM 66.2 °F 64.4 °F 94% 29.97 in 10.0 mi Calm Calm - N/A   Mostly Cloudy
6:00 AM 65.8 °F 64.2 °F 94% 29.97 in 10.0 mi NW 4.6 mph - N/A   Mostly Cloudy
6:20 AM 65.7 °F 62.8 °F 90% 29.99 in 10.0 mi NW 5.8 mph - N/A   Overcast
6:40 AM 65.3 °F 62.4 °F 90% 29.99 in 10.0 mi NW 9.2 mph - N/A   Overcast
7:20 AM 64.4 °F 60.8 °F 88% 30.01 in 10.0 mi NNW 6.9 mph - N/A   Mostly Cloudy
7:40 AM 64.0 °F 60.3 °F 87% 30.02 in 10.0 mi North 5.8 mph - N/A   Overcast
8:00 AM 64.4 °F 60.4 °F 87% 30.02 in 10.0 mi NNW 8.1 mph - N/A   Overcast
8:20 AM 64.8 °F 60.8 °F 87% 30.03 in 10.0 mi NNW 6.9 mph - N/A   Overcast
8:40 AM 65.5 °F 61.0 °F 85% 30.04 in 10.0 mi NNW 8.1 mph - N/A   Overcast
9:00 AM 66.2 °F 61.2 °F 84% 30.04 in 10.0 mi North 5.8 mph - N/A   Overcast
9:20 AM 66.9 °F 59.5 °F 77% 30.05 in 10.0 mi North 6.9 mph 16.1 mph N/A   Overcast
9:40 AM 67.5 °F 59.2 °F 75% 30.05 in 10.0 mi North 8.1 mph - N/A   Overcast
10:00 AM 68.2 °F 58.6 °F 71% 30.07 in 10.0 mi North 9.2 mph - N/A   Mostly Cloudy
10:20 AM 68.9 °F 57.0 °F 66% 30.07 in 10.0 mi NNE 8.1 mph - N/A   Overcast
10:40 AM 69.6 °F 56.8 °F 64% 30.07 in 10.0 mi North 9.2 mph 16.1 mph N/A   Overcast
11:20 AM 71.8 °F 56.1 °F 58% 30.08 in 10.0 mi NNE 10.4 mph 16.1 mph N/A   Clear
11:40 AM 72.7 °F 57.0 °F 58% 30.07 in 10.0 mi NNE 8.1 mph - N/A   Clear
12:00 PM 72.7 °F 55.8 °F 55% 30.07 in 10.0 mi North 9.2 mph - N/A   Clear
12:20 PM 73.9 °F 56.7 °F 55% 30.07 in 10.0 mi NNE 6.9 mph - N/A   Clear
12:40 PM 73.4 °F 54.5 °F 51% 30.08 in 10.0 mi North 9.2 mph 16.1 mph N/A   Clear
1:00 PM 75.0 °F 55.2 °F 50% 30.07 in 10.0 mi NNW 9.2 mph 17.3 mph N/A   Clear
1:20 PM 74.1 °F 52.3 °F 46% 30.07 in 10.0 mi North 5.8 mph 16.1 mph N/A   Clear
1:40 PM 75.0 °F 51.8 °F 44% 30.07 in 10.0 mi NNE 6.9 mph - N/A   Clear
2:00 PM 75.6 °F 52.2 °F 44% 30.07 in 10.0 mi North 6.9 mph 16.1 mph N/A   Clear
2:20 PM 75.4 °F 52.9 °F 45% 30.06 in 10.0 mi North 5.8 mph - N/A   Clear
2:40 PM 75.7 °F 52.2 °F 44% 30.07 in 10.0 mi North 11.5 mph - N/A   Clear
3:00 PM 76.3 °F 52.0 °F 43% 30.07 in 10.0 mi NNW 8.1 mph - N/A   Clear
3:40 PM 76.5 °F 46.4 °F 34% 30.07 in 10.0 mi NNE 9.2 mph - N/A   Clear
4:00 PM 77.0 °F 49.8 °F 38% 30.07 in 10.0 mi NE 6.9 mph - N/A   Clear
4:20 PM 76.8 °F 51.3 °F 41% 30.06 in 10.0 mi North 11.5 mph 16.1 mph N/A   Clear
4:40 PM 77.0 °F 50.5 °F 39% 30.06 in 10.0 mi NNE 9.2 mph - N/A   Clear
5:00 PM 76.5 °F 48.6 °F 37% 30.06 in 10.0 mi North 6.9 mph 16.1 mph N/A   Clear
5:20 PM 76.1 °F 48.0 °F 37% 30.06 in 10.0 mi North 8.1 mph 17.3 mph N/A   Clear
5:40 PM 75.6 °F 45.3 °F 34% 30.06 in 10.0 mi NNE 10.4 mph - N/A   Clear
6:00 PM 75.0 °F 44.4 °F 34% 30.05 in 10.0 mi NNE 6.9 mph - N/A   Clear
6:20 PM 74.3 °F 46.4 °F 37% 30.06 in 10.0 mi NNE 8.1 mph - N/A   Clear
6:40 PM 72.7 °F 46.0 °F 39% 30.07 in 10.0 mi North 5.8 mph - N/A   Clear
7:00 PM 71.1 °F 46.4 °F 41% 30.07 in 10.0 mi NNE 4.6 mph - N/A   Clear
7:20 PM 71.4 °F 48.0 °F 43% 30.07 in 10.0 mi Calm Calm - N/A   Clear
7:40 PM 70.9 °F 48.9 °F 46% 30.08 in 10.0 mi NNE 3.5 mph - N/A   Clear
8:00 PM 68.7 °F 50.9 °F 53% 30.08 in 10.0 mi NNE 4.6 mph - N/A   Clear
8:20 PM 66.6 °F 48.9 °F 53% 30.08 in 10.0 mi NNE 3.5 mph - N/A   Clear
8:40 PM 64.6 °F 47.3 °F 53% 30.08 in 10.0 mi Calm Calm - N/A   Clear
9:00 PM 62.6 °F 49.6 °F 63% 30.09 in 10.0 mi Calm Calm - N/A   Clear
9:20 PM 61.7 °F 49.1 °F 63% 30.10 in 10.0 mi Calm Calm - N/A   Clear
9:40 PM 59.7 °F 49.6 °F 69% 30.11 in 10.0 mi Calm Calm - N/A   Clear
10:00 PM 58.6 °F 51.1 °F 76% 30.11 in 10.0 mi Calm Calm - N/A   Clear
10:20 PM 59.0 °F 50.5 °F 73% 30.12 in 10.0 mi Calm Calm - N/A   Clear
10:40 PM 57.6 °F 51.6 °F 81% 30.12 in 10.0 mi Calm Calm - N/A   Clear
11:00 PM 57.0 °F 51.8 °F 83% 30.12 in 10.0 mi Calm Calm - N/A   Clear
11:20 PM 57.2 °F 50.2 °F 77% 30.12 in 10.0 mi Calm Calm - N/A   Clear
11:40 PM 56.5 °F 50.5 °F 80% 30.12 in 10.0 mi Calm Calm - N/A   Clear